Terminal Aerodrome Forecast
Issued by NWS Springfield, MO

Home | Current Version | Previous Version | Text Only | Print | Product List | Glossary On
Versions: 1 2 3 4 5 6 7 8 9 10 11 12 13 14 15 16 17 18 19 20
960
FTUS43 KSGF 020520
TAFSGF
TAF
KSGF 020520Z 0206/0306 34006KT P6SM VCSH BKN040 OVC110
     FM021000 34006KT P6SM OVC015
      TEMPO 0212/0215 BKN009
     FM021600 31008KT P6SM BKN025
     FM022200 32008KT P6SM BKN035
     FM030400 32004KT P6SM SKC=

USA.gov is the U.S. government's official web portal to all federal, state and local government web resources and services.